LTCI Airport Information

Runway Information
Runway 03 Length 9022 ft width 148 ft
Elevation 5412 ft Threshold 0 ft Heading 38
Runway 21 Length 9022 ft Width 148 ft
Elevation 5474 ft Threshold 0 ft Heading 218
Airport Frequencies
Type APP Name APP Frequency 118.1 MHZ
Type GND Name GND Frequency 121.9 MHZ
Type TWR Name TWR Frequency 118.1 MHZ
Airport Navaids
Type VOR-DME Name Van Frequency 115200 KHZ
Type NDB Name Van Frequency 397 KHZ
Airport Weather Information & NOTAM
ADDS - METARS form results

(1955 UTC 14 November 2018)
Data provider http://aviationweather.gov/metar/data/
 
Forecast for: LTCI (VAN , TR)
Text: TAF LTCI 141640Z 1418/1503 VRB02KT 9999 SCT030 BKN070
Forecast period: 1800 UTC 14 November 2018 to 0300 UTC 15 November 2018
Forecast type: FROM: standard forecast or significant change
Winds: variable direction winds at 2 MPH (2 knots; 1.0 m/s)
Visibility: 6 or more miles 10+ km)
Ceiling: 7000 feet AGL
Clouds: scattered clouds at 3000 feet AGL
broken clouds at 7000 feet AGL
Weather: no significant weather forecast for this period
Text: TEMPO 1418/1422 15012KT -SHRA FEW020CB BKN030
Forecast period: 1800 to 2200 UTC 14 November 2018
Forecast type: TEMPORARY: The following changes expected for less than half the time period
Winds: from the SSE (150 degrees) at 14 MPH (12 knots; 6.2 m/s)
Visibility: missing
Ceiling: 3000 feet AGL
Clouds: few clouds at 2000 feet AGL
broken clouds at 3000 feet AGL
Weather: -SHRA  (light rain showers)